This is the latest recevied weather packets stored in our database for station/object K1ADK-1. If no packets are shown the sender has not sent any weather packets the latest 10 day(s).
| Time | Temp. | Humidity | Pressure | Rain* | Wind** | Luminosity | Snow |
|---|---|---|---|---|---|---|---|
| 1777977316 | 12.78° C | 86% | 1011 hPa | 0 mm | - | 33 W/m² | - |
| 1777974916 | 12.22° C | 87% | 1010.1 hPa | 0 mm | - | 5 W/m² | - |
| 1777972515 | 11.67° C | 87% | 1010.2 hPa | 0 mm | - | 0 W/m² | - |
| 1777971355 | 11.67° C | 87% | 1010.3 hPa | 0 mm | - | 0 W/m² | - |
| 1777970735 | 11.67° C | 87% | 1010.3 hPa | 0 mm | - | 0 W/m² | - |
| 1777970115 | 11.67° C | 87% | 1010.3 hPa | 0 mm | - | 0 W/m² | - |
| 1777968915 | 12.22° C | 86% | 1010.4 hPa | 0 mm | - | 0 W/m² | - |
| 1777967715 | 11.67° C | 86% | 1010.3 hPa | 0 mm | - | 0 W/m² | - |
| 1777966515 | 12.22° C | 86% | 1010.3 hPa | 0 mm | - | 0 W/m² | - |
| 1777965915 | 12.22° C | 86% | 1010.4 hPa | 0 mm | - | 0 W/m² | - |
| 1777961115 | 12.78° C | 83% | 1010.7 hPa | 0 mm | - | 0 W/m² | - |
| 1777960515 | 12.78° C | 82% | 1010.7 hPa | 0 mm | - | 0 W/m² | - |
| 1777956337 | 13.33° C | 76% | 1011.1 hPa | 0 mm | - | 0 W/m² | - |
| 1777949115 | 13.89° C | 70% | 1011.5 hPa | 0 mm | - | 0 W/m² | - |
| 1777944917 | 14.44° C | 67% | 1011.5 hPa | 0 mm | - | 0 W/m² | - |
| 1777940117 | 13.89° C | 68% | 1010.4 hPa | 0 mm | - | 0 W/m² | - |
| 1777939517 | 13.89° C | 67% | 1010.1 hPa | 0 mm | - | 0 W/m² | - |
| 1777937117 | 14.44° C | 65% | 1009.9 hPa | 0 mm | - | 23 W/m² | - |
| 1777934117 | 16.11° C | 57% | 1009.6 hPa | 0 mm | - | 68 W/m² | - |
| 1777930517 | 17.78° C | 49% | 1010.1 hPa | 0 mm | - | 362 W/m² | - |
| 1777929317 | 18.89° C | 48% | 1010.1 hPa | 0 mm | - | 413 W/m² | - |
| 1777928737 | 18.33° C | 49% | 1010 hPa | 0 mm | - | 439 W/m² | - |
| 1777926916 | 18.89° C | 48% | 1009.9 hPa | 0 mm | - | 521 W/m² | - |
| 1777919736 | 20° C | 41% | 1010.7 hPa | 0 mm | - | 761 W/m² | - |
| 1777918516 | 20° C | 42% | 1011.1 hPa | 0 mm | - | 780 W/m² | - |
* Rain latest hour (hover to see other rain measurements)
** Current wind speed in m/s (hover to see current wind gust speed)